Time;durP1;ratioP1;P1;durP2;ratioP2;P2;SDS_P1;SDS_P2;PMS_P1;PMS_P2;Temp;Humidity;BMP_temperature;BMP_pressure;BME280_temperature;BME280_humidity;BME280_pressure;Samples;Min_cycle;Max_cycle;Signal;HPM_P1;HPM_P2
2023/03/02 00:01:18;;;;;;;17.92;11.35;;;;;;;;;;4755438;30;20064;-92
2023/03/02 00:03:44;;;;;;;16.17;11.00;;;;;;;;;;4758084;30;20060;-92
2023/03/02 00:06:10;;;;;;;13.90;9.07;;;;;;;;;;4758204;30;20044;-92
2023/03/02 00:08:37;;;;;;;17.52;10.40;;;;;;;;;;4758686;30;20067;-92
2023/03/02 00:11:04;;;;;;;13.50;8.68;;;;;;;;;;4758000;30;20048;-91
2023/03/02 00:13:30;;;;;;;13.00;9.05;;;;;;;;;;4729458;30;20066;-92
2023/03/02 00:15:57;;;;;;;13.18;8.95;;;;;;;;;;4758030;30;20066;-92
2023/03/02 00:18:23;;;;;;;13.63;9.18;;;;;;;;;;4758210;30;20052;-92
2023/03/02 00:20:49;;;;;;;14.88;8.23;;;;;;;;;;4758343;30;20065;-91
2023/03/02 00:23:15;;;;;;;13.07;9.23;;;;;;;;;;4729016;30;20056;-92
2023/03/02 00:25:41;;;;;;;12.35;9.35;;;;;;;;;;4758452;30;20493;-92
2023/03/02 00:28:07;;;;;;;12.65;8.55;;;;;;;;;;4758279;30;20056;-92
2023/03/02 00:30:34;;;;;;;13.68;8.38;;;;;;;;;;4758037;30;20091;-92
2023/03/02 00:33:00;;;;;;;10.00;7.32;;;;;;;;;;4758294;30;20113;-93
2023/03/02 00:35:29;;;;;;;9.57;7.15;;;;;;;;;;4728256;30;20091;-92
2023/03/02 00:37:58;;;;;;;12.52;8.43;;;;;;;;;;4757894;30;20056;-92
2023/03/02 00:40:24;;;;;;;12.13;8.07;;;;;;;;;;4757623;30;20087;-92
2023/03/02 00:42:50;;;;;;;10.80;7.63;;;;;;;;;;4728532;30;20099;-91
2023/03/02 00:45:16;;;;;;;12.98;8.30;;;;;;;;;;4757607;30;20055;-91
2023/03/02 00:47:42;;;;;;;11.45;7.38;;;;;;;;;;4757106;30;20144;-91
2023/03/02 00:50:09;;;;;;;12.57;8.48;;;;;;;;;;4760192;30;20052;-91
2023/03/02 00:52:35;;;;;;;12.30;8.07;;;;;;;;;;4761943;30;20131;-91
2023/03/02 00:55:01;;;;;;;11.80;8.23;;;;;;;;;;4758421;30;20060;-95
2023/03/02 00:57:27;;;;;;;13.10;6.88;;;;;;;;;;4759304;30;20060;-93
2023/03/02 00:59:54;;;;;;;15.13;8.07;;;;;;;;;;4760199;30;20056;-95
2023/03/02 01:02:20;;;;;;;11.32;7.90;;;;;;;;;;4758885;30;20066;-94
2023/03/02 01:04:47;;;;;;;11.95;7.13;;;;;;;;;;4759070;30;20063;-94
2023/03/02 01:07:14;;;;;;;12.40;8.15;;;;;;;;;;4758450;30;20151;-93
2023/03/02 01:09:41;;;;;;;10.77;8.20;;;;;;;;;;4757220;30;20550;-92
2023/03/02 01:12:10;;;;;;;11.30;8.88;;;;;;;;;;4757432;30;20085;-95
2023/03/02 01:14:39;;;;;;;10.02;7.00;;;;;;;;;;4756271;30;20142;-93
2023/03/02 01:17:06;;;;;;;10.95;7.28;;;;;;;;;;4757201;30;20067;-94
2023/03/02 01:19:32;;;;;;;8.75;6.25;;;;;;;;;;4757282;30;20497;-92
2023/03/02 01:21:59;;;;;;;10.38;7.00;;;;;;;;;;4756954;30;20056;-92
2023/03/02 01:24:25;;;;;;;8.77;6.68;;;;;;;;;;4756699;30;20063;-95
2023/03/02 01:26:53;;;;;;;16.23;6.43;;;;;;;;;;4757995;30;20058;-94
2023/03/02 01:29:20;;;;;;;9.90;6.43;;;;;;;;;;4756877;30;20056;-95
2023/03/02 01:31:46;;;;;;;11.73;6.90;;;;;;;;;;4771418;30;20068;-94
2023/03/02 01:34:12;;;;;;;11.80;6.78;;;;;;;;;;4756825;30;20058;-96
2023/03/02 01:36:38;;;;;;;9.68;6.57;;;;;;;;;;4757634;30;20154;-95
2023/03/02 01:39:04;;;;;;;10.32;7.03;;;;;;;;;;4757771;30;20063;-96
2023/03/02 01:41:30;;;;;;;10.40;7.07;;;;;;;;;;4758743;30;20148;-95
2023/03/02 01:43:57;;;;;;;10.93;6.28;;;;;;;;;;4757411;30;20067;-96
2023/03/02 01:46:24;;;;;;;10.02;7.53;;;;;;;;;;4727816;30;20066;-93
2023/03/02 01:49:11;;;;;;;9.93;7.13;;;;;;;;;;4756858;30;20055;-95
2023/03/02 01:51:40;;;;;;;12.05;6.80;;;;;;;;;;4741982;30;20155;-96
2023/03/02 01:54:09;;;;;;;11.57;7.47;;;;;;;;;;4756871;30;20062;-92
2023/03/02 01:56:37;;;;;;;11.98;8.95;;;;;;;;;;4756567;30;20587;-92
2023/03/02 01:59:07;;;;;;;11.10;7.57;;;;;;;;;;4756258;30;20506;-92
2023/03/02 02:01:35;;;;;;;10.73;7.68;;;;;;;;;;4756175;30;20499;-94
2023/03/02 02:04:01;;;;;;;13.88;9.00;;;;;;;;;;4756149;30;20058;-91
2023/03/02 02:06:48;;;;;;;12.98;8.38;;;2.60;99.90;;;;;;4755944;30;20058;-92
2023/03/02 02:09:16;;;;;;;13.25;9.32;;;;;;;;;;4741728;30;20163;-93
2023/03/02 02:11:42;;;;;;;13.55;9.70;;;;;;;;;;4755965;30;20517;-91
2023/03/02 02:14:08;;;;;;;20.13;9.45;;;;;;;;;;4756134;30;20142;-91
2023/03/02 02:16:36;;;;;;;14.88;9.02;;;;;;;;;;4726106;30;20532;-91
2023/03/02 02:19:03;;;;;;;12.55;8.18;;;;;;;;;;4755667;30;20067;-92
2023/03/02 02:21:30;;;;;;;14.07;9.45;;;;;;;;;;4756258;30;20181;-92
2023/03/02 02:24:03;;;;;;;13.95;9.40;;;;;;;;;;4756534;30;20056;-91
2023/03/02 02:26:56;;;;;;;20.67;10.25;;;;;;;;;;4755140;30;20138;-92
2023/03/02 02:29:24;;;;;;;16.45;9.18;;;;;;;;;;4738948;30;20055;-93
2023/03/02 02:31:54;;;;;;;17.10;10.23;;;;;;;;;;4755535;30;20115;-95
2023/03/02 02:34:23;;;;;;;17.15;11.35;;;;;;;;;;4772003;30;20579;-94
2023/03/02 02:36:51;;;;;;;17.90;10.50;;;;;;;;;;4764960;30;20138;-91
2023/03/02 02:39:20;;;;;;;15.65;9.68;;;;;;;;;;4762354;30;20131;-93
2023/03/02 02:41:47;;;;;;;14.88;9.32;;;;;;;;;;4760329;30;20056;-93
2023/03/02 02:44:17;;;;;;;19.00;11.18;;;;;;;;;;4759988;30;20048;-94
2023/03/02 02:46:45;;;;;;;17.88;11.77;;;;;;;;;;4759794;30;20047;-92
2023/03/02 02:49:32;;;;;;;21.05;12.38;;;;;;;;;;4732652;30;20142;-92
2023/03/02 02:51:58;;;;;;;19.17;11.63;;;;;;;;;;4762883;30;20077;-92
2023/03/02 02:54:26;;;;;;;22.20;13.60;;;;;;;;;;4735434;30;20048;-90
2023/03/02 02:56:52;;;;;;;17.80;11.75;;;;;;;;;;4762701;30;20072;-91
2023/03/02 02:59:18;;;;;;;19.30;12.50;;;;;;;;;;4735096;30;20051;-94
2023/03/02 03:01:47;;;;;;;19.10;11.98;;;;;;;;;;4764707;30;20063;-91
2023/03/02 03:04:17;;;;;;;23.33;13.57;;;;;;;;;;4762278;30;20059;-93
2023/03/02 03:06:54;;;;;;;22.05;14.05;;;;;;;;;;4757956;30;20091;-93
2023/03/02 03:09:20;;;;;;;23.60;14.38;;;;;;;;;;4756525;30;20125;-95
2023/03/02 03:11:52;;;;;;;20.35;13.80;;;;;;;;;;4757102;30;20506;-95
2023/03/02 03:14:19;;;;;;;25.38;13.52;;;;;;;;;;4764220;30;20083;-91
2023/03/02 03:16:46;;;;;;;23.42;14.68;;;;;;;;;;4763243;30;20060;-92
2023/03/02 03:19:17;;;;;;;24.48;14.77;;;;;;;;;;4759775;30;20511;-91
2023/03/02 03:21:44;;;;;;;26.63;14.98;;;;;;;;;;4758594;30;20071;-95
2023/03/02 03:24:10;;;;;;;29.42;15.18;;;;;;;;;;4757195;30;20048;-92
2023/03/02 03:26:36;;;;;;;21.20;13.93;;;;;;;;;;4729360;30;20065;-93
2023/03/02 03:29:03;;;;;;;23.45;13.80;;;;;;;;;;4755902;30;20113;-93
2023/03/02 03:31:29;;;;;;;29.52;15.70;;;;;;;;;;4755881;30;20101;-93
2023/03/02 03:33:59;;;;;;;22.52;13.98;;;;;;;;;;4728143;30;20060;-93
2023/03/02 03:36:26;;;;;;;21.75;13.02;;;;;;;;;;4760045;30;20493;-96
2023/03/02 03:38:52;;;;;;;29.52;15.98;;;;;;;;;;4763989;30;20051;-95
2023/03/02 03:41:18;;;;;;;27.00;16.65;;;;;;;;;;4733968;30;20498;-92
2023/03/02 03:43:44;;;;;;;27.58;15.55;;;;;;;;;;4763904;30;20055;-93
2023/03/02 03:46:10;;;;;;;23.10;14.00;;;;;;;;;;4732726;30;20375;-92
2023/03/02 03:48:36;;;;;;;26.15;15.27;;;;;;;;;;4761331;30;20062;-92
2023/03/02 03:51:03;;;;;;;27.00;15.70;;;;;;;;;;4731339;30;20056;-92
2023/03/02 03:53:29;;;;;;;27.70;16.20;;;;;;;;;;4760768;30;20063;-92
2023/03/02 03:55:56;;;;;;;26.58;17.10;;;;;;;;;;4760817;30;20059;-91
2023/03/02 03:58:22;;;;;;;24.58;15.63;;;;;;;;;;4760658;30;20059;-91
2023/03/02 04:00:48;;;;;;;30.95;16.92;;;;;;;;;;4746418;30;20071;-91
2023/03/02 04:03:15;;;;;;;27.40;16.17;;;;;;;;;;4745980;30;20138;-91
2023/03/02 04:05:41;;;;;;;27.48;16.40;;;;;;;;;;4760333;30;20101;-92
2023/03/02 04:08:07;;;;;;;27.35;16.23;;;;;;;;;;4731666;30;20142;-92
2023/03/02 04:10:34;;;;;;;31.15;18.35;;;;;;;;;;4760289;30;20525;-92
2023/03/02 04:13:00;;;;;;;28.48;16.77;;;;;;;;;;4760208;30;20058;-92
2023/03/02 04:15:26;;;;;;;29.63;17.17;;;;;;;;;;4760206;30;20059;-91
2023/03/02 04:17:52;;;;;;;35.28;18.23;;;;;;;;;;4760374;30;20058;-92
2023/03/02 04:20:19;;;;;;;33.42;17.13;;;;;;;;;;4760961;30;20082;-92
2023/03/02 04:22:46;;;;;;;37.40;19.13;;;;;;;;;;4760566;30;20419;-91
2023/03/02 04:25:13;;;;;;;32.40;16.80;;;;;;;;;;4760471;30;20063;-91
2023/03/02 04:27:42;;;;;;;35.53;16.70;;;;;;;;;;4760339;30;20112;-92
2023/03/02 04:30:09;;;;;;;31.95;16.58;;;;;;;;;;4731827;30;20103;-92
2023/03/02 04:32:35;;;;;;;36.25;16.20;;;;;;;;;;4760038;30;20060;-92
2023/03/02 04:35:02;;;;;;;34.90;18.13;;;;;;;;;;4763841;30;20051;-93
2023/03/02 04:37:29;;;;;;;40.22;15.90;;;;;;;;;;4778100;30;20056;-91
2023/03/02 04:39:55;;;;;;;53.15;20.25;;;;;;;;;;4763965;30;20044;-93
2023/03/02 04:42:21;;;;;;;39.40;17.55;;;;;;;;;;4763046;30;20055;-92
2023/03/02 04:44:47;;;;;;;40.60;19.02;;;;;;;;;;4765215;30;20060;-90
2023/03/02 04:47:22;;;;;;;55.45;21.70;;;;;;;;;;4782077;30;20091;-92
2023/03/02 04:49:53;;;;;;;38.50;18.60;;;;;;;;;;4757356;30;20056;-92
2023/03/02 04:52:19;;;;;;;44.33;19.83;;;;;;;;;;4757823;30;20066;-91
2023/03/02 04:54:45;;;;;;;52.17;18.35;;;;;;;;;;4759968;30;20063;-92
2023/03/02 04:57:12;;;;;;;107.38;22.27;;;;;;;;;;4760093;30;20395;-92
2023/03/02 04:59:38;;;;;;;34.03;17.55;;;;;;;;;;4757697;30;20498;-95
2023/03/02 05:02:04;;;;;;;77.57;21.48;;;;;;;;;;4760011;30;20067;-95
2023/03/02 05:04:30;;;;;;;38.15;18.77;;;;;;;;;;4731503;30;20070;-96
2023/03/02 05:06:57;;;;;;;42.50;16.63;;;;;;;;;;4763140;30;20066;-96
2023/03/02 05:09:26;;;;;;;41.53;18.42;;;;;;;;;;4765666;30;20459;-91
2023/03/02 05:11:55;;;;;;;62.22;19.50;;;;;;;;;;4765797;30;20062;-93
2023/03/02 05:14:22;;;;;;;46.47;18.95;;;;;;;;;;4765294;30;20060;-91
2023/03/02 05:16:48;;;;;;;61.17;19.58;;;;;;;;;;4763636;30;20068;-93
2023/03/02 05:19:14;;;;;;;43.95;20.15;;;;;;;;;;4732496;30;20055;-92
2023/03/02 05:21:40;;;;;;;46.58;20.35;;;;;;;;;;4757151;30;20058;-91
2023/03/02 05:24:07;;;;;;;76.93;22.13;;;;;;;;;;4756717;30;20059;-92
2023/03/02 05:26:33;;;;;;;43.70;18.48;;;;;;;;;;4757314;30;20062;-91
2023/03/02 05:28:59;;;;;;;74.90;22.23;;;;;;;;;;4756742;30;20139;-92
2023/03/02 05:31:38;;;;;;;62.42;20.48;;;;;;;;;;4728388;30;20265;-93
2023/03/02 05:34:05;;;;;;;60.15;20.85;;;;;;;;;;4756450;30;20063;-92
2023/03/02 05:36:31;;;;;;;117.65;22.85;;;;;;;;;;4757386;30;20150;-92
2023/03/02 05:38:58;;;;;;;58.30;21.50;;;;;;;;;;4756838;30;20060;-93
2023/03/02 05:41:24;;;;;;;69.80;24.23;;;;;;;;;;4756788;30;20056;-93
2023/03/02 05:43:50;;;;;;;111.57;25.90;;;;;;;;;;4757284;30;20052;-92
2023/03/02 05:46:16;;;;;;;100.03;27.85;;;;;;;;;;4756478;30;20055;-92
2023/03/02 05:48:44;;;;;;;117.47;30.00;;;;;;;;;;4756142;30;20052;-92
2023/03/02 05:51:10;;;;;;;95.53;30.52;;;;;;;;;;4756003;30;20056;-93
2023/03/02 05:53:36;;;;;;;107.07;27.15;;;;;;;;;;4727389;30;20059;-91
2023/03/02 05:56:02;;;;;;;107.72;29.48;;;;;;;;;;4756340;30;20414;-91
2023/03/02 05:58:29;;;;;;;93.75;31.33;;;;;;;;;;4757126;30;20060;-92
2023/03/02 06:00:55;;;;;;;98.45;33.85;;;;;;;;;;4726678;30;20067;-91
2023/03/02 06:03:21;;;;;;;99.65;35.08;;;;;;;;;;4727988;30;20193;-92
2023/03/02 06:05:51;;;;;;;95.93;34.70;;;;;;;;;;4756311;30;20055;-91
2023/03/02 06:08:18;;;;;;;96.20;35.13;;;;;;;;;;4756060;30;20152;-92
2023/03/02 06:10:44;;;;;;;89.10;34.55;;;;;;;;;;4756010;30;20091;-91
2023/03/02 06:13:10;;;;;;;97.45;38.10;;;;;;;;;;4755695;30;20071;-91
2023/03/02 06:15:38;;;;;;;88.43;37.30;;;;;;;;;;4726980;30;20062;-91
2023/03/02 06:18:04;;;;;;;81.38;36.40;;;;;;;;;;4755897;30;20062;-92
2023/03/02 06:20:30;;;;;;;89.78;36.92;;;;;;;;;;4726685;30;20059;-91
2023/03/02 06:39:14;;;;;;;101.25;28.45;;;;;;;;;;5273622;24;19923;-92
2023/03/02 06:49:12;;;;;;;99.30;30.85;;;;;;;;;;5075017;24;19975;-92
2023/03/02 08:28:44;;;;;;;;;;;;;;;;;;;;;
2023/03/02 10:30:01;;;;;;;23.92;12.35;;;;;;;;;;4833419;24;20150;-92
2023/03/02 12:34:27;;;;;;;19.45;10.57;;;;;;;;;;3084814;24;20402;-92
2023/03/02 12:41:01;;;;;;;;;;;;;;;;;;;;;
2023/03/02 12:44:53;;;;;;;;;;;;;;;;;;;;;
2023/03/02 13:39:47;;;;;;;;;;;;;;;;;;;;;
2023/03/02 14:05:04;;;;;;;;;;;;;;;;;;;;;
2023/03/02 14:31:10;;;;;;;18.85;13.32;;;;;;;;;;4901256;24;20062;-93
2023/03/02 14:44:41;;;;;;;19.23;10.75;;;;;;;;;;4774308;30;20108;-95
2023/03/02 14:51:08;;;;;;;;;;;;;;;;;;;;;
2023/03/02 14:57:56;;;;;;;16.40;11.13;;;;;;;;;;4754143;30;20071;-95
2023/03/02 15:04:07;;;;;;;13.63;10.10;;;;;;;;;;4719023;30;20044;-94
2023/03/02 15:10:50;;;;;;;29.10;11.20;;;6.30;99.90;;;;;;4721139;30;20114;-93
2023/03/02 15:13:25;;;;;;;10.95;7.50;;;;;;;;;;4704133;30;20057;-95
2023/03/02 15:19:24;;;;;;;13.57;8.73;;;;;;;;;;4719958;30;20059;-95
2023/03/02 15:27:24;;;;;;;10.10;7.68;;;;;;;;;;3709230;27;20058;-92
2023/03/02 15:29:51;;;;;;;10.93;7.68;;;;;;;;;;4758823;30;20068;-93
2023/03/02 15:32:29;;;;;;;8.20;6.30;;;;;;;;;;4759524;30;20055;-94
2023/03/02 15:35:23;;;;;;;10.85;7.03;;;;;;;;;;4759413;30;20058;-96
2023/03/02 15:38:03;;;;;;;;;;;;;;;;;;;;;
2023/03/02 15:44:04;;;;;;;10.10;6.28;;;;;;;;;;4773026;30;20188;-93
2023/03/02 15:46:42;;;;;;;12.70;6.03;;;;;;;;;;4735528;30;20097;-94
2023/03/02 15:49:11;;;;;;;10.32;6.53;;;;;;;;;;4720950;30;20061;-94
2023/03/02 15:55:33;;;;;;;10.80;6.88;;;;;;;;;;4735716;30;20427;-95
2023/03/02 15:58:06;;;;;;;9.60;5.85;;;;;;;;;;4721563;30;20056;-95
2023/03/02 16:00:44;;;;;;;8.70;5.65;;;;;;;;;;4721781;30;20048;-94
2023/03/02 16:03:25;;;;;;;9.95;5.80;;;;;;;;;;4720899;30;20052;-93
2023/03/02 16:06:15;;;;;;;15.02;5.60;;;;;;;;;;4721050;30;20064;-92
2023/03/02 16:08:46;;;;;;;9.10;6.18;;;;;;;;;;4721184;30;20091;-92
2023/03/02 16:21:08;;;;;;;;;;;;;;;;;;;;;
2023/03/02 16:23:41;;;;;;;15.82;6.53;;;;;;;;;;4734967;30;20117;-96
2023/03/02 16:26:17;;;;;;;9.73;6.68;;;;;;;;;;4721048;30;20053;-93
2023/03/02 16:28:46;;;;;;;9.70;6.10;;;;;;;;;;4735475;30;20067;-93
2023/03/02 16:31:36;;;;;;;9.52;6.57;;;;;;;;;;4721072;30;20048;-94
2023/03/02 16:34:23;;;;;;;;;;;;;;;;;;;;;
2023/03/02 16:37:17;;;;;;;11.05;6.57;;;;;;;;;;4722853;30;20052;-93
2023/03/02 16:40:07;;;;;;;9.27;6.85;;;;;;;;;;4778350;24;20052;-95
2023/03/02 16:42:51;;;;;;;8.48;5.85;;;;;;;;;;4740325;30;20056;-95
2023/03/02 16:52:34;;;;;;;;;;;;;;;;;;;;;
2023/03/02 16:59:14;;;;;;;10.90;7.30;;;;;;;;;;4635432;31;20055;-92
2023/03/02 17:01:43;;;;;;;14.82;7.13;;;;;;;;;;4621609;31;20057;-93
2023/03/02 17:04:39;;;;;;;14.48;7.18;;;;;;;;;;4607257;31;20426;-95
2023/03/02 17:24:12;;;;;;;8.55;6.18;;;;;;;;;;4764027;30;20073;-93
2023/03/02 17:30:30;;;;;;;12.55;6.93;;;;;;;;;;4738843;30;20394;-95
2023/03/02 17:33:33;;;;;;;9.90;6.00;;;;;;;;;;4848407;24;20139;-92
2023/03/02 17:46:45;;;;;;;10.95;6.47;;;;;;;;;;4736907;30;20046;-93
2023/03/02 17:53:22;;;;;;;10.65;7.47;;;;;;;;;;4703114;30;20076;-93
2023/03/02 17:56:26;;;;;;;14.10;6.53;;;;;;;;;;4702640;30;20092;-93
2023/03/02 18:07:05;;;;;;;10.98;6.45;;;;;;;;;;1513748;24;20479;-89
2023/03/02 20:06:02;;;;;;;24.08;4.95;;;2.00;99.90;;;;;;5011183;24;20042;-96
2023/03/02 20:12:42;;;;;;;67.57;7.40;;;;;;;;;;4782175;30;20433;-96
2023/03/02 20:37:11;;;;;;;7.68;5.05;;;;;;;;;;4870981;24;20071;-95
2023/03/02 22:15:41;;;;;;;154.70;18.50;;;;;;;;;;937249;24;20359;-92
2023/03/02 22:18:23;;;;;;;84.25;13.75;;;;;;;;;;4741460;30;20063;-92
2023/03/02 22:24:31;;;;;;;125.22;19.55;;;;;;;;;;4772090;30;20050;-91
2023/03/02 22:27:24;;;;;;;204.27;24.50;;;;;;;;;;4741801;30;20048;-93
2023/03/02 22:30:00;;;;;;;67.82;16.58;;;;;;;;;;4741509;30;20085;-93
2023/03/02 22:32:29;;;;;;;144.32;23.92;;;;;;;;;;4741466;30;20146;-92
2023/03/02 22:34:56;;;;;;;313.63;28.30;;;;;;;;;;4741445;30;20124;-93
2023/03/02 22:37:27;;;;;;;278.13;28.65;;;;;;;;;;4741499;30;20124;-93
2023/03/02 22:39:55;;;;;;;255.27;26.60;;;;;;;;;;4741826;30;20063;-92
2023/03/02 22:42:22;;;;;;;246.00;25.20;;;;;;;;;;4740565;30;20143;-92
2023/03/02 22:45:01;;;;;;;208.82;22.60;;;;;;;;;;4741429;30;20058;-92
2023/03/02 22:47:27;;;;;;;244.02;24.48;;;;;;;;;;4740992;30;20090;-93
2023/03/02 22:49:58;;;;;;;258.45;22.73;;;;;;;;;;4741430;30;20083;-92
2023/03/02 22:52:29;;;;;;;203.63;20.67;;;;;;;;;;4740818;30;20066;-92
2023/03/02 22:54:55;;;;;;;173.85;21.05;;;;;;;;;;4740970;30;20569;-92
2023/03/02 22:57:33;;;;;;;246.73;21.95;;;;;;;;;;4741076;30;20060;-92
2023/03/02 23:00:12;;;;;;;327.20;28.45;;;;;;;;;;4723739;30;20063;-92
2023/03/02 23:02:41;;;;;;;159.50;18.92;;;;;;;;;;4723801;30;20052;-92
2023/03/02 23:05:27;;;;;;;253.77;25.55;;;;;;;;;;4723001;30;20091;-93
2023/03/02 23:08:15;;;;;;;73.45;14.20;;;1.50;99.90;;;;;;4723429;30;20056;-92
2023/03/02 23:10:42;;;;;;;126.35;16.05;;;;;;;;;;4737569;30;20052;-92
2023/03/02 23:13:08;;;;;;;133.38;15.88;;;;;;;;;;4722995;30;20063;-92
2023/03/02 23:15:35;;;;;;;134.35;17.25;;;;;;;;;;4752310;30;20087;-92
2023/03/02 23:18:08;;;;;;;170.15;20.05;;;;;;;;;;4737264;30;20056;-92
2023/03/02 23:20:35;;;;;;;103.50;15.00;;;;;;;;;;4723328;30;20056;-92
2023/03/02 23:23:01;;;;;;;147.18;16.55;;;;;;;;;;4723274;30;20102;-92
2023/03/02 23:25:27;;;;;;;118.32;15.13;;;;;;;;;;4737714;30;20099;-91
2023/03/02 23:27:53;;;;;;;115.78;15.85;;;;;;;;;;4723183;30;20151;-91
2023/03/02 23:30:21;;;;;;;201.65;19.08;;;;;;;;;;4723036;30;20056;-91
2023/03/02 23:32:47;;;;;;;157.15;17.85;;;;;;;;;;4722682;30;20617;-91
2023/03/02 23:35:13;;;;;;;148.82;19.30;;;;;;;;;;4751765;30;20060;-91
2023/03/02 23:37:39;;;;;;;121.85;15.52;;;;;;;;;;4723869;30;20056;-92
2023/03/02 23:40:06;;;;;;;59.60;11.45;;;;;;;;;;4723621;30;20055;-92
2023/03/02 23:42:32;;;;;;;95.13;12.98;;;;;;;;;;4738929;30;20056;-93
2023/03/02 23:44:58;;;;;;;78.93;12.18;;;;;;;;;;4723754;30;20048;-91
2023/03/02 23:47:24;;;;;;;65.10;13.20;;;;;;;;;;4722737;30;20064;-92
2023/03/02 23:49:50;;;;;;;57.00;12.10;;;;;;;;;;4722516;30;20060;-91
2023/03/02 23:52:17;;;;;;;85.07;13.23;;;;;;;;;;4722700;30;20121;-91
2023/03/02 23:54:45;;;;;;;102.15;14.57;;;;;;;;;;4725541;30;20070;-92
2023/03/02 23:57:11;;;;;;;57.80;12.07;;;;;;;;;;4726554;30;20398;-91
2023/03/02 23:59:37;;;;;;;29.80;10.25;;;;;;;;;;4740851;30;20059;-91
